sensor_id;sensor_type;location;lat;lon;timestamp;temperature;humidity
56761;DHT22;42633;44.494;11.356;2022-07-12T00:00:23;25.00;81.30
56761;DHT22;42633;44.494;11.356;2022-07-12T00:03:27;25.00;81.10
56761;DHT22;42633;44.494;11.356;2022-07-12T00:06:31;25.00;81.30
56761;DHT22;42633;44.494;11.356;2022-07-12T00:09:35;25.00;81.30
56761;DHT22;42633;44.494;11.356;2022-07-12T00:12:40;24.90;81.60
56761;DHT22;42633;44.494;11.356;2022-07-12T00:15:47;24.90;81.70
56761;DHT22;42633;44.494;11.356;2022-07-12T00:18:51;24.90;81.60
56761;DHT22;42633;44.494;11.356;2022-07-12T00:21:55;24.90;81.70
56761;DHT22;42633;44.494;11.356;2022-07-12T00:24:59;24.80;81.80
56761;DHT22;42633;44.494;11.356;2022-07-12T00:28:03;24.80;82.00
56761;DHT22;42633;44.494;11.356;2022-07-12T00:31:07;24.80;82.10
56761;DHT22;42633;44.494;11.356;2022-07-12T00:34:11;24.80;82.20
56761;DHT22;42633;44.494;11.356;2022-07-12T00:37:16;24.80;82.20
56761;DHT22;42633;44.494;11.356;2022-07-12T00:40:20;24.80;82.40
56761;DHT22;42633;44.494;11.356;2022-07-12T00:43:24;24.80;82.30
56761;DHT22;42633;44.494;11.356;2022-07-12T00:46:30;24.80;82.50
56761;DHT22;42633;44.494;11.356;2022-07-12T00:49:35;24.70;82.60
56761;DHT22;42633;44.494;11.356;2022-07-12T00:52:39;24.80;82.50
56761;DHT22;42633;44.494;11.356;2022-07-12T00:55:44;24.80;82.40
56761;DHT22;42633;44.494;11.356;2022-07-12T00:58:48;24.80;82.30
56761;DHT22;42633;44.494;11.356;2022-07-12T01:01:52;24.90;82.10
56761;DHT22;42633;44.494;11.356;2022-07-12T01:04:56;25.00;82.00
56761;DHT22;42633;44.494;11.356;2022-07-12T01:08:01;25.00;81.80
56761;DHT22;42633;44.494;11.356;2022-07-12T01:11:06;25.00;81.70
56761;DHT22;42633;44.494;11.356;2022-07-12T01:14:11;25.00;81.60
56761;DHT22;42633;44.494;11.356;2022-07-12T01:17:22;25.10;81.60
56761;DHT22;42633;44.494;11.356;2022-07-12T01:20:26;25.10;81.60
56761;DHT22;42633;44.494;11.356;2022-07-12T01:23:37;25.10;81.90
56761;DHT22;42633;44.494;11.356;2022-07-12T01:26:42;25.00;82.10
56761;DHT22;42633;44.494;11.356;2022-07-12T01:29:47;25.00;82.40
56761;DHT22;42633;44.494;11.356;2022-07-12T01:32:52;24.80;82.80
56761;DHT22;42633;44.494;11.356;2022-07-12T01:35:56;24.80;83.10
56761;DHT22;42633;44.494;11.356;2022-07-12T01:39:00;24.80;83.20
56761;DHT22;42633;44.494;11.356;2022-07-12T01:42:05;24.70;83.30
56761;DHT22;42633;44.494;11.356;2022-07-12T01:45:09;24.70;83.50
56761;DHT22;42633;44.494;11.356;2022-07-12T01:48:14;24.70;83.70
56761;DHT22;42633;44.494;11.356;2022-07-12T01:51:18;24.70;83.90
56761;DHT22;42633;44.494;11.356;2022-07-12T01:54:24;24.70;84.30
56761;DHT22;42633;44.494;11.356;2022-07-12T01:57:28;24.60;84.40
56761;DHT22;42633;44.494;11.356;2022-07-12T02:00:32;24.60;84.60
56761;DHT22;42633;44.494;11.356;2022-07-12T02:03:43;24.60;84.80
56761;DHT22;42633;44.494;11.356;2022-07-12T02:06:48;24.50;85.00
56761;DHT22;42633;44.494;11.356;2022-07-12T02:09:52;24.40;85.60
56761;DHT22;42633;44.494;11.356;2022-07-12T02:12:56;23.90;87.10
56761;DHT22;42633;44.494;11.356;2022-07-12T02:16:04;23.70;88.30
56761;DHT22;42633;44.494;11.356;2022-07-12T02:19:09;23.60;89.00
56761;DHT22;42633;44.494;11.356;2022-07-12T02:22:14;23.70;89.20
56761;DHT22;42633;44.494;11.356;2022-07-12T02:25:18;23.70;89.00
56761;DHT22;42633;44.494;11.356;2022-07-12T02:28:22;23.80;89.00
56761;DHT22;42633;44.494;11.356;2022-07-12T02:31:26;23.90;89.40
56761;DHT22;42633;44.494;11.356;2022-07-12T02:34:30;23.90;89.00
56761;DHT22;42633;44.494;11.356;2022-07-12T02:37:34;23.80;89.10
56761;DHT22;42633;44.494;11.356;2022-07-12T02:40:38;23.90;89.00
56761;DHT22;42633;44.494;11.356;2022-07-12T02:43:57;23.90;89.20
56761;DHT22;42633;44.494;11.356;2022-07-12T02:47:01;23.80;89.30
56761;DHT22;42633;44.494;11.356;2022-07-12T02:50:07;23.90;89.20
56761;DHT22;42633;44.494;11.356;2022-07-12T02:53:11;23.90;89.30
56761;DHT22;42633;44.494;11.356;2022-07-12T02:56:15;23.90;89.30
56761;DHT22;42633;44.494;11.356;2022-07-12T02:59:19;23.90;89.40
56761;DHT22;42633;44.494;11.356;2022-07-12T03:02:23;23.90;89.60
56761;DHT22;42633;44.494;11.356;2022-07-12T03:05:27;23.80;89.70
56761;DHT22;42633;44.494;11.356;2022-07-12T03:08:31;23.70;90.00
56761;DHT22;42633;44.494;11.356;2022-07-12T03:11:39;23.70;90.30
56761;DHT22;42633;44.494;11.356;2022-07-12T03:15:15;23.60;90.40
56761;DHT22;42633;44.494;11.356;2022-07-12T03:18:21;23.60;90.40
56761;DHT22;42633;44.494;11.356;2022-07-12T03:21:25;23.60;90.50
56761;DHT22;42633;44.494;11.356;2022-07-12T03:24:29;23.60;90.50
56761;DHT22;42633;44.494;11.356;2022-07-12T03:27:34;23.70;90.50
56761;DHT22;42633;44.494;11.356;2022-07-12T03:30:38;23.70;90.50
56761;DHT22;42633;44.494;11.356;2022-07-12T03:33:42;23.70;90.70
56761;DHT22;42633;44.494;11.356;2022-07-12T03:36:46;23.70;90.60
56761;DHT22;42633;44.494;11.356;2022-07-12T03:39:56;23.70;90.60
56761;DHT22;42633;44.494;11.356;2022-07-12T03:43:01;23.70;90.70
56761;DHT22;42633;44.494;11.356;2022-07-12T03:46:10;23.70;90.80
56761;DHT22;42633;44.494;11.356;2022-07-12T03:49:15;23.70;90.90
56761;DHT22;42633;44.494;11.356;2022-07-12T03:55:54;23.60;91.20
56761;DHT22;42633;44.494;11.356;2022-07-12T03:58:59;23.60;91.30
56761;DHT22;42633;44.494;11.356;2022-07-12T04:02:07;23.50;91.40
56761;DHT22;42633;44.494;11.356;2022-07-12T04:05:13;23.60;91.50
56761;DHT22;42633;44.494;11.356;2022-07-12T04:08:23;23.60;91.60
56761;DHT22;42633;44.494;11.356;2022-07-12T04:11:32;23.50;91.80
56761;DHT22;42633;44.494;11.356;2022-07-12T04:14:37;23.50;92.00
56761;DHT22;42633;44.494;11.356;2022-07-12T04:17:44;23.50;92.10
56761;DHT22;42633;44.494;11.356;2022-07-12T04:20:54;23.50;92.20
56761;DHT22;42633;44.494;11.356;2022-07-12T04:24:01;23.60;91.90
56761;DHT22;42633;44.494;11.356;2022-07-12T04:27:05;23.70;91.70
56761;DHT22;42633;44.494;11.356;2022-07-12T04:30:09;23.70;91.70
56761;DHT22;42633;44.494;11.356;2022-07-12T04:33:14;23.80;91.70
56761;DHT22;42633;44.494;11.356;2022-07-12T04:36:18;23.70;91.70
56761;DHT22;42633;44.494;11.356;2022-07-12T04:39:22;23.80;91.70
56761;DHT22;42633;44.494;11.356;2022-07-12T04:42:27;23.80;91.60
56761;DHT22;42633;44.494;11.356;2022-07-12T04:45:31;23.90;91.60
56761;DHT22;42633;44.494;11.356;2022-07-12T04:48:35;23.90;91.50
56761;DHT22;42633;44.494;11.356;2022-07-12T04:51:43;24.00;91.40
56761;DHT22;42633;44.494;11.356;2022-07-12T04:54:49;24.10;91.10
56761;DHT22;42633;44.494;11.356;2022-07-12T04:57:53;24.20;91.00
56761;DHT22;42633;44.494;11.356;2022-07-12T05:00:57;24.30;90.80
56761;DHT22;42633;44.494;11.356;2022-07-12T05:04:01;24.50;90.60
56761;DHT22;42633;44.494;11.356;2022-07-12T05:07:05;24.60;90.50
56761;DHT22;42633;44.494;11.356;2022-07-12T05:10:09;24.70;90.20
56761;DHT22;42633;44.494;11.356;2022-07-12T05:13:13;24.80;90.00
56761;DHT22;42633;44.494;11.356;2022-07-12T05:16:17;24.80;89.70
56761;DHT22;42633;44.494;11.356;2022-07-12T05:19:21;25.00;89.30
56761;DHT22;42633;44.494;11.356;2022-07-12T05:22:25;25.10;88.70
56761;DHT22;42633;44.494;11.356;2022-07-12T05:25:29;25.40;87.80
56761;DHT22;42633;44.494;11.356;2022-07-12T05:28:33;25.90;86.10
56761;DHT22;42633;44.494;11.356;2022-07-12T05:31:36;26.30;84.60
56761;DHT22;42633;44.494;11.356;2022-07-12T05:34:41;26.60;83.60
56761;DHT22;42633;44.494;11.356;2022-07-12T05:37:45;26.70;82.80
56761;DHT22;42633;44.494;11.356;2022-07-12T05:40:50;26.90;82.40
56761;DHT22;42633;44.494;11.356;2022-07-12T05:44:01;27.00;81.80
56761;DHT22;42633;44.494;11.356;2022-07-12T05:47:06;27.20;80.40
56761;DHT22;42633;44.494;11.356;2022-07-12T05:50:11;27.30;80.00
56761;DHT22;42633;44.494;11.356;2022-07-12T05:53:15;27.20;79.90
56761;DHT22;42633;44.494;11.356;2022-07-12T05:56:25;27.20;80.30
56761;DHT22;42633;44.494;11.356;2022-07-12T05:59:29;27.30;80.00
56761;DHT22;42633;44.494;11.356;2022-07-12T06:02:35;27.30;80.00
56761;DHT22;42633;44.494;11.356;2022-07-12T06:05:41;27.30;79.00
56761;DHT22;42633;44.494;11.356;2022-07-12T06:08:45;27.30;78.80
56761;DHT22;42633;44.494;11.356;2022-07-12T06:11:49;27.30;78.90
56761;DHT22;42633;44.494;11.356;2022-07-12T06:14:53;27.20;79.20
56761;DHT22;42633;44.494;11.356;2022-07-12T06:17:57;27.10;79.30
56761;DHT22;42633;44.494;11.356;2022-07-12T06:21:01;27.00;79.30
56761;DHT22;42633;44.494;11.356;2022-07-12T06:24:06;27.10;79.50
56761;DHT22;42633;44.494;11.356;2022-07-12T06:27:12;26.90;80.30
56761;DHT22;42633;44.494;11.356;2022-07-12T06:30:20;26.80;80.00
56761;DHT22;42633;44.494;11.356;2022-07-12T06:33:25;26.60;80.70
56761;DHT22;42633;44.494;11.356;2022-07-12T06:36:30;26.40;81.50
56761;DHT22;42633;44.494;11.356;2022-07-12T06:39:36;26.40;82.00
56761;DHT22;42633;44.494;11.356;2022-07-12T06:42:44;26.50;82.00
56761;DHT22;42633;44.494;11.356;2022-07-12T06:45:49;26.60;81.90
56761;DHT22;42633;44.494;11.356;2022-07-12T06:48:54;26.80;81.60
56761;DHT22;42633;44.494;11.356;2022-07-12T06:51:59;26.90;81.30
56761;DHT22;42633;44.494;11.356;2022-07-12T06:55:14;27.00;81.00
56761;DHT22;42633;44.494;11.356;2022-07-12T06:58:24;27.20;81.00
56761;DHT22;42633;44.494;11.356;2022-07-12T07:01:28;27.20;81.00
56761;DHT22;42633;44.494;11.356;2022-07-12T07:04:32;27.10;81.20
56761;DHT22;42633;44.494;11.356;2022-07-12T07:07:37;26.90;81.60
56761;DHT22;42633;44.494;11.356;2022-07-12T07:10:41;26.90;81.90
56761;DHT22;42633;44.494;11.356;2022-07-12T07:14:12;26.90;81.90
56761;DHT22;42633;44.494;11.356;2022-07-12T07:17:34;27.10;81.50
56761;DHT22;42633;44.494;11.356;2022-07-12T07:20:44;27.20;81.00
56761;DHT22;42633;44.494;11.356;2022-07-12T07:23:54;27.30;80.40
56761;DHT22;42633;44.494;11.356;2022-07-12T07:27:01;27.50;79.80
56761;DHT22;42633;44.494;11.356;2022-07-12T07:30:26;27.50;79.40
56761;DHT22;42633;44.494;11.356;2022-07-12T07:33:49;27.70;79.20
56761;DHT22;42633;44.494;11.356;2022-07-12T07:36:54;27.80;78.60
56761;DHT22;42633;44.494;11.356;2022-07-12T07:39:58;27.90;78.20
56761;DHT22;42633;44.494;11.356;2022-07-12T07:43:02;28.10;77.90
56761;DHT22;42633;44.494;11.356;2022-07-12T07:46:06;28.30;77.40
56761;DHT22;42633;44.494;11.356;2022-07-12T07:49:10;28.40;77.20
56761;DHT22;42633;44.494;11.356;2022-07-12T07:52:14;28.60;76.90
56761;DHT22;42633;44.494;11.356;2022-07-12T07:55:18;28.60;76.80
56761;DHT22;42633;44.494;11.356;2022-07-12T07:58:23;28.70;76.50
56761;DHT22;42633;44.494;11.356;2022-07-12T08:01:27;28.70;76.10
56761;DHT22;42633;44.494;11.356;2022-07-12T08:04:48;28.70;76.50
56761;DHT22;42633;44.494;11.356;2022-07-12T08:07:52;28.80;76.40
56761;DHT22;42633;44.494;11.356;2022-07-12T08:11:00;28.90;75.90
56761;DHT22;42633;44.494;11.356;2022-07-12T08:14:05;28.70;76.00
56761;DHT22;42633;44.494;11.356;2022-07-12T08:17:11;28.70;75.70
56761;DHT22;42633;44.494;11.356;2022-07-12T08:20:17;28.70;75.90
56761;DHT22;42633;44.494;11.356;2022-07-12T08:23:23;28.90;75.70
56761;DHT22;42633;44.494;11.356;2022-07-12T08:26:29;29.20;74.80
56761;DHT22;42633;44.494;11.356;2022-07-12T08:29:33;29.70;73.70
56761;DHT22;42633;44.494;11.356;2022-07-12T08:32:42;29.90;73.30
56761;DHT22;42633;44.494;11.356;2022-07-12T08:35:46;30.20;72.60
56761;DHT22;42633;44.494;11.356;2022-07-12T08:38:51;30.40;71.90
56761;DHT22;42633;44.494;11.356;2022-07-12T08:41:55;30.40;71.60
56761;DHT22;42633;44.494;11.356;2022-07-12T08:44:59;30.30;71.40
56761;DHT22;42633;44.494;11.356;2022-07-12T08:48:04;30.20;71.70
56761;DHT22;42633;44.494;11.356;2022-07-12T08:51:10;30.20;72.00
56761;DHT22;42633;44.494;11.356;2022-07-12T08:54:15;30.10;71.90
56761;DHT22;42633;44.494;11.356;2022-07-12T08:57:29;30.30;71.60
56761;DHT22;42633;44.494;11.356;2022-07-12T09:00:36;30.50;70.90
56761;DHT22;42633;44.494;11.356;2022-07-12T09:03:43;30.80;70.40
56761;DHT22;42633;44.494;11.356;2022-07-12T09:06:51;30.90;69.70
56761;DHT22;42633;44.494;11.356;2022-07-12T09:10:03;30.70;69.80
56761;DHT22;42633;44.494;11.356;2022-07-12T09:13:08;30.50;69.60
56761;DHT22;42633;44.494;11.356;2022-07-12T09:16:13;30.00;71.00
56761;DHT22;42633;44.494;11.356;2022-07-12T09:19:18;29.90;71.90
56761;DHT22;42633;44.494;11.356;2022-07-12T09:22:23;30.00;71.60
56761;DHT22;42633;44.494;11.356;2022-07-12T09:25:27;30.10;70.60
56761;DHT22;42633;44.494;11.356;2022-07-12T09:28:31;30.00;70.70
56761;DHT22;42633;44.494;11.356;2022-07-12T09:31:40;30.10;70.90
56761;DHT22;42633;44.494;11.356;2022-07-12T09:35:05;30.30;70.50
56761;DHT22;42633;44.494;11.356;2022-07-12T09:38:28;30.40;70.20
56761;DHT22;42633;44.494;11.356;2022-07-12T09:41:33;30.30;69.80
56761;DHT22;42633;44.494;11.356;2022-07-12T09:44:39;30.50;69.10
56761;DHT22;42633;44.494;11.356;2022-07-12T09:47:44;30.50;68.60
56761;DHT22;42633;44.494;11.356;2022-07-12T09:50:51;30.90;68.10
56761;DHT22;42633;44.494;11.356;2022-07-12T09:53:57;31.30;68.10
56761;DHT22;42633;44.494;11.356;2022-07-12T09:57:22;31.50;67.30
56761;DHT22;42633;44.494;11.356;2022-07-12T10:00:29;31.50;66.30
56761;DHT22;42633;44.494;11.356;2022-07-12T10:03:35;31.50;66.90
56761;DHT22;42633;44.494;11.356;2022-07-12T10:06:40;31.80;66.20
56761;DHT22;42633;44.494;11.356;2022-07-12T10:09:47;31.80;65.70
56761;DHT22;42633;44.494;11.356;2022-07-12T10:12:52;31.80;65.70
56761;DHT22;42633;44.494;11.356;2022-07-12T10:16:01;31.70;65.50
56761;DHT22;42633;44.494;11.356;2022-07-12T10:19:28;31.80;65.50
56761;DHT22;42633;44.494;11.356;2022-07-12T10:22:33;31.70;65.30
56761;DHT22;42633;44.494;11.356;2022-07-12T10:25:37;31.80;65.50
56761;DHT22;42633;44.494;11.356;2022-07-12T10:29:02;31.70;65.10
56761;DHT22;42633;44.494;11.356;2022-07-12T10:32:33;31.40;64.80
56761;DHT22;42633;44.494;11.356;2022-07-12T10:35:38;31.60;65.40
56761;DHT22;42633;44.494;11.356;2022-07-12T10:38:42;31.80;64.10
56761;DHT22;42633;44.494;11.356;2022-07-12T10:45:14;31.90;63.00
56761;DHT22;42633;44.494;11.356;2022-07-12T10:48:20;31.90;62.10
56761;DHT22;42633;44.494;11.356;2022-07-12T10:51:25;31.80;62.20
56761;DHT22;42633;44.494;11.356;2022-07-12T10:54:29;31.80;61.90
56761;DHT22;42633;44.494;11.356;2022-07-12T10:57:46;31.80;62.30
56761;DHT22;42633;44.494;11.356;2022-07-12T11:00:54;31.90;62.10
56761;DHT22;42633;44.494;11.356;2022-07-12T11:04:08;31.80;62.20
56761;DHT22;42633;44.494;11.356;2022-07-12T11:07:19;31.90;62.00
56761;DHT22;42633;44.494;11.356;2022-07-12T11:10:23;32.10;62.00
56761;DHT22;42633;44.494;11.356;2022-07-12T11:13:27;32.20;62.30
56761;DHT22;42633;44.494;11.356;2022-07-12T11:16:32;32.30;61.50
56761;DHT22;42633;44.494;11.356;2022-07-12T11:19:37;32.20;61.70
56761;DHT22;42633;44.494;11.356;2022-07-12T11:22:41;32.20;62.20
56761;DHT22;42633;44.494;11.356;2022-07-12T11:25:46;32.50;61.90
56761;DHT22;42633;44.494;11.356;2022-07-12T11:28:50;32.60;61.40
56761;DHT22;42633;44.494;11.356;2022-07-12T11:32:04;32.60;61.70
56761;DHT22;42633;44.494;11.356;2022-07-12T11:35:23;32.60;62.30
56761;DHT22;42633;44.494;11.356;2022-07-12T11:38:29;32.50;62.50
56761;DHT22;42633;44.494;11.356;2022-07-12T11:41:33;32.40;62.80
56761;DHT22;42633;44.494;11.356;2022-07-12T11:44:51;32.40;63.00
56761;DHT22;42633;44.494;11.356;2022-07-12T11:48:00;32.40;62.80
56761;DHT22;42633;44.494;11.356;2022-07-12T11:51:09;32.40;62.30
56761;DHT22;42633;44.494;11.356;2022-07-12T11:54:14;32.40;62.40
56761;DHT22;42633;44.494;11.356;2022-07-12T11:57:22;32.60;61.80
56761;DHT22;42633;44.494;11.356;2022-07-12T12:00:31;32.80;61.00
56761;DHT22;42633;44.494;11.356;2022-07-12T12:03:45;33.00;60.60
56761;DHT22;42633;44.494;11.356;2022-07-12T12:06:49;32.90;60.70
56761;DHT22;42633;44.494;11.356;2022-07-12T12:09:59;32.80;60.60
56761;DHT22;42633;44.494;11.356;2022-07-12T12:13:03;32.70;60.80
56761;DHT22;42633;44.494;11.356;2022-07-12T12:16:10;32.70;61.60
56761;DHT22;42633;44.494;11.356;2022-07-12T12:19:15;33.00;61.50
56761;DHT22;42633;44.494;11.356;2022-07-12T12:25:34;33.50;61.30
56761;DHT22;42633;44.494;11.356;2022-07-12T12:28:56;33.70;60.30
56761;DHT22;42633;44.494;11.356;2022-07-12T12:32:01;33.50;60.20
56761;DHT22;42633;44.494;11.356;2022-07-12T12:35:09;33.60;59.70
56761;DHT22;42633;44.494;11.356;2022-07-12T12:38:14;33.60;59.60
56761;DHT22;42633;44.494;11.356;2022-07-12T12:41:19;33.80;60.00
56761;DHT22;42633;44.494;11.356;2022-07-12T12:44:26;33.90;59.80
56761;DHT22;42633;44.494;11.356;2022-07-12T12:47:54;34.20;59.60
56761;DHT22;42633;44.494;11.356;2022-07-12T12:51:11;34.60;58.90
56761;DHT22;42633;44.494;11.356;2022-07-12T12:54:15;34.60;58.80
56761;DHT22;42633;44.494;11.356;2022-07-12T12:57:19;34.40;58.90
56761;DHT22;42633;44.494;11.356;2022-07-12T13:00:24;34.10;59.20
56761;DHT22;42633;44.494;11.356;2022-07-12T13:03:28;34.20;59.80
56761;DHT22;42633;44.494;11.356;2022-07-12T13:06:32;34.20;59.10
56761;DHT22;42633;44.494;11.356;2022-07-12T13:09:37;33.90;59.30
56761;DHT22;42633;44.494;11.356;2022-07-12T13:12:42;33.50;60.10
56761;DHT22;42633;44.494;11.356;2022-07-12T13:15:47;33.50;60.20
56761;DHT22;42633;44.494;11.356;2022-07-12T13:18:51;33.70;60.00
56761;DHT22;42633;44.494;11.356;2022-07-12T13:21:55;33.50;59.90
56761;DHT22;42633;44.494;11.356;2022-07-12T13:24:59;33.40;60.10
56761;DHT22;42633;44.494;11.356;2022-07-12T13:28:04;33.30;59.70
56761;DHT22;42633;44.494;11.356;2022-07-12T13:31:08;33.20;60.10
56761;DHT22;42633;44.494;11.356;2022-07-12T13:34:12;33.10;60.50
56761;DHT22;42633;44.494;11.356;2022-07-12T13:37:17;33.10;60.50
56761;DHT22;42633;44.494;11.356;2022-07-12T13:40:22;33.10;60.30
56761;DHT22;42633;44.494;11.356;2022-07-12T13:43:26;33.20;60.00
56761;DHT22;42633;44.494;11.356;2022-07-12T13:46:30;33.00;60.20
56761;DHT22;42633;44.494;11.356;2022-07-12T13:49:35;33.10;60.00
56761;DHT22;42633;44.494;11.356;2022-07-12T13:52:43;33.20;59.90
56761;DHT22;42633;44.494;11.356;2022-07-12T13:55:48;33.20;59.90
56761;DHT22;42633;44.494;11.356;2022-07-12T13:58:52;33.20;60.00
56761;DHT22;42633;44.494;11.356;2022-07-12T14:01:57;33.00;60.40
56761;DHT22;42633;44.494;11.356;2022-07-12T14:05:02;33.00;60.50
56761;DHT22;42633;44.494;11.356;2022-07-12T14:08:06;32.70;61.10
56761;DHT22;42633;44.494;11.356;2022-07-12T14:11:11;32.60;61.00
56761;DHT22;42633;44.494;11.356;2022-07-12T14:14:15;32.50;61.50
56761;DHT22;42633;44.494;11.356;2022-07-12T14:17:21;32.50;61.60
56761;DHT22;42633;44.494;11.356;2022-07-12T14:20:26;32.50;61.50
56761;DHT22;42633;44.494;11.356;2022-07-12T14:23:30;32.80;61.20
56761;DHT22;42633;44.494;11.356;2022-07-12T14:26:59;32.90;60.90
56761;DHT22;42633;44.494;11.356;2022-07-12T14:30:05;32.90;61.00
56761;DHT22;42633;44.494;11.356;2022-07-12T14:33:10;33.00;60.60
56761;DHT22;42633;44.494;11.356;2022-07-12T14:36:14;33.10;60.40
56761;DHT22;42633;44.494;11.356;2022-07-12T14:39:18;33.10;60.00
56761;DHT22;42633;44.494;11.356;2022-07-12T14:42:23;33.00;59.90
56761;DHT22;42633;44.494;11.356;2022-07-12T14:45:27;32.90;60.40
56761;DHT22;42633;44.494;11.356;2022-07-12T14:48:32;33.00;60.20
56761;DHT22;42633;44.494;11.356;2022-07-12T14:51:37;33.00;60.40
56761;DHT22;42633;44.494;11.356;2022-07-12T14:54:41;32.90;60.40
56761;DHT22;42633;44.494;11.356;2022-07-12T14:57:45;33.00;60.10
56761;DHT22;42633;44.494;11.356;2022-07-12T15:00:49;32.90;60.10
56761;DHT22;42633;44.494;11.356;2022-07-12T15:03:53;32.60;60.50
56761;DHT22;42633;44.494;11.356;2022-07-12T15:06:57;32.50;60.90
56761;DHT22;42633;44.494;11.356;2022-07-12T15:10:01;32.40;61.00
56761;DHT22;42633;44.494;11.356;2022-07-12T15:13:06;32.40;61.00
56761;DHT22;42633;44.494;11.356;2022-07-12T15:16:10;32.40;61.10
56761;DHT22;42633;44.494;11.356;2022-07-12T15:19:19;32.40;61.00
56761;DHT22;42633;44.494;11.356;2022-07-12T15:22:57;32.20;61.10
56761;DHT22;42633;44.494;11.356;2022-07-12T15:26:02;32.10;61.20
56761;DHT22;42633;44.494;11.356;2022-07-12T15:29:14;32.00;61.60
56761;DHT22;42633;44.494;11.356;2022-07-12T15:32:20;32.00;61.10
56761;DHT22;42633;44.494;11.356;2022-07-12T15:35:25;32.00;61.20
56761;DHT22;42633;44.494;11.356;2022-07-12T15:38:40;32.10;61.40
56761;DHT22;42633;44.494;11.356;2022-07-12T15:42:27;32.10;61.00
56761;DHT22;42633;44.494;11.356;2022-07-12T15:45:37;32.10;61.50
56761;DHT22;42633;44.494;11.356;2022-07-12T15:48:41;32.00;61.50
56761;DHT22;42633;44.494;11.356;2022-07-12T15:52:13;32.10;61.40
56761;DHT22;42633;44.494;11.356;2022-07-12T15:55:38;32.00;61.60
56761;DHT22;42633;44.494;11.356;2022-07-12T15:58:44;31.90;62.10
56761;DHT22;42633;44.494;11.356;2022-07-12T16:01:48;31.90;61.40
56761;DHT22;42633;44.494;11.356;2022-07-12T16:05:20;32.00;60.90
56761;DHT22;42633;44.494;11.356;2022-07-12T16:08:24;32.10;60.90
56761;DHT22;42633;44.494;11.356;2022-07-12T16:11:31;32.10;60.70
56761;DHT22;42633;44.494;11.356;2022-07-12T16:14:38;32.20;60.70
56761;DHT22;42633;44.494;11.356;2022-07-12T16:17:44;32.30;60.60
56761;DHT22;42633;44.494;11.356;2022-07-12T16:20:49;32.40;60.20
56761;DHT22;42633;44.494;11.356;2022-07-12T16:23:55;32.60;59.80
56761;DHT22;42633;44.494;11.356;2022-07-12T16:27:02;33.60;58.80
56761;DHT22;42633;44.494;11.356;2022-07-12T16:30:08;35.20;56.60
56761;DHT22;42633;44.494;11.356;2022-07-12T16:33:39;36.50;55.20
56761;DHT22;42633;44.494;11.356;2022-07-12T16:36:51;37.80;53.30
56761;DHT22;42633;44.494;11.356;2022-07-12T16:40:00;38.50;52.20
56761;DHT22;42633;44.494;11.356;2022-07-12T16:43:12;38.70;51.80
56761;DHT22;42633;44.494;11.356;2022-07-12T16:46:17;38.80;51.50
56761;DHT22;42633;44.494;11.356;2022-07-12T16:49:21;38.30;51.80
56761;DHT22;42633;44.494;11.356;2022-07-12T16:52:25;38.10;52.00
56761;DHT22;42633;44.494;11.356;2022-07-12T16:55:29;38.30;51.70
56761;DHT22;42633;44.494;11.356;2022-07-12T16:58:33;38.70;51.50
56761;DHT22;42633;44.494;11.356;2022-07-12T17:01:38;38.80;51.40
56761;DHT22;42633;44.494;11.356;2022-07-12T17:04:42;38.50;51.90
56761;DHT22;42633;44.494;11.356;2022-07-12T17:07:46;38.60;51.90
56761;DHT22;42633;44.494;11.356;2022-07-12T17:10:50;38.80;52.40
56761;DHT22;42633;44.494;11.356;2022-07-12T17:13:58;38.50;52.20
56761;DHT22;42633;44.494;11.356;2022-07-12T17:17:03;38.30;52.30
56761;DHT22;42633;44.494;11.356;2022-07-12T17:20:07;37.80;53.10
56761;DHT22;42633;44.494;11.356;2022-07-12T17:23:11;36.20;54.80
56761;DHT22;42633;44.494;11.356;2022-07-12T17:26:15;34.80;57.00
56761;DHT22;42633;44.494;11.356;2022-07-12T17:29:20;33.70;58.50
56761;DHT22;42633;44.494;11.356;2022-07-12T17:32:25;33.00;59.90
56761;DHT22;42633;44.494;11.356;2022-07-12T17:35:29;32.30;61.30
56761;DHT22;42633;44.494;11.356;2022-07-12T17:38:35;31.80;62.10
56761;DHT22;42633;44.494;11.356;2022-07-12T17:41:39;31.70;62.70
56761;DHT22;42633;44.494;11.356;2022-07-12T17:44:48;31.40;62.80
56761;DHT22;42633;44.494;11.356;2022-07-12T17:48:07;31.20;63.10
56761;DHT22;42633;44.494;11.356;2022-07-12T17:51:11;31.10;63.50
56761;DHT22;42633;44.494;11.356;2022-07-12T17:54:15;31.00;63.70
56761;DHT22;42633;44.494;11.356;2022-07-12T17:57:19;30.90;63.70
56761;DHT22;42633;44.494;11.356;2022-07-12T18:00:23;30.80;63.80
56761;DHT22;42633;44.494;11.356;2022-07-12T18:03:28;30.70;63.70
56761;DHT22;42633;44.494;11.356;2022-07-12T18:06:32;30.70;63.70
56761;DHT22;42633;44.494;11.356;2022-07-12T18:09:38;30.60;63.90
56761;DHT22;42633;44.494;11.356;2022-07-12T18:12:43;30.50;64.10
56761;DHT22;42633;44.494;11.356;2022-07-12T18:16:09;30.40;64.30
56761;DHT22;42633;44.494;11.356;2022-07-12T18:19:13;30.30;64.50
56761;DHT22;42633;44.494;11.356;2022-07-12T18:22:28;30.10;64.70
56761;DHT22;42633;44.494;11.356;2022-07-12T18:26:37;29.90;65.00
56761;DHT22;42633;44.494;11.356;2022-07-12T18:29:41;29.70;65.40
56761;DHT22;42633;44.494;11.356;2022-07-12T18:32:49;29.60;65.60
56761;DHT22;42633;44.494;11.356;2022-07-12T18:35:53;29.60;65.40
56761;DHT22;42633;44.494;11.356;2022-07-12T18:38:58;29.60;65.60
56761;DHT22;42633;44.494;11.356;2022-07-12T18:42:02;29.50;65.80
56761;DHT22;42633;44.494;11.356;2022-07-12T18:45:07;29.50;66.10
56761;DHT22;42633;44.494;11.356;2022-07-12T18:48:11;29.50;66.40
56761;DHT22;42633;44.494;11.356;2022-07-12T18:51:20;29.40;66.70
56761;DHT22;42633;44.494;11.356;2022-07-12T18:54:27;29.30;67.10
56761;DHT22;42633;44.494;11.356;2022-07-12T18:57:35;29.20;67.50
56761;DHT22;42633;44.494;11.356;2022-07-12T19:00:42;29.00;67.90
56761;DHT22;42633;44.494;11.356;2022-07-12T19:03:48;28.90;68.30
56761;DHT22;42633;44.494;11.356;2022-07-12T19:06:53;28.80;68.70
56761;DHT22;42633;44.494;11.356;2022-07-12T19:09:57;28.70;69.20
56761;DHT22;42633;44.494;11.356;2022-07-12T19:13:01;28.70;69.70
56761;DHT22;42633;44.494;11.356;2022-07-12T19:16:05;28.60;70.40
56761;DHT22;42633;44.494;11.356;2022-07-12T19:19:09;28.50;70.80
56761;DHT22;42633;44.494;11.356;2022-07-12T19:22:14;28.50;71.10
56761;DHT22;42633;44.494;11.356;2022-07-12T19:25:18;28.40;71.40
56761;DHT22;42633;44.494;11.356;2022-07-12T19:28:22;28.40;71.60
56761;DHT22;42633;44.494;11.356;2022-07-12T19:31:25;28.40;71.70